createdAt,value
2023-03-21T00:00:27.278Z,94.30
2023-03-21T00:01:27.244Z,94.10
2023-03-21T00:02:27.322Z,94.51
2023-03-21T00:03:27.290Z,94.51
2023-03-21T00:04:31.212Z,94.30
2023-03-21T00:05:28.270Z,94.20
2023-03-21T00:06:27.183Z,94.10
2023-03-21T00:07:27.168Z,94.10
2023-03-21T00:08:27.169Z,94.20
2023-03-21T00:09:27.154Z,93.69
2023-03-21T00:10:39.830Z,94.20
2023-03-21T00:11:28.115Z,94.10
2023-03-21T00:12:27.096Z,94.20
2023-03-21T00:13:27.089Z,94.10
2023-03-21T00:14:27.064Z,94.60
2023-03-21T00:15:41.318Z,93.99
2023-03-21T00:16:28.446Z,94.51
2023-03-21T00:17:27.027Z,94.40
2023-03-21T00:18:27.026Z,93.59
2023-03-21T00:19:27.002Z,93.99
2023-03-21T00:20:27.006Z,93.99
2023-03-21T00:21:46.254Z,93.99
2023-03-21T00:22:27.974Z,94.10
2023-03-21T00:23:26.945Z,94.26
2023-03-21T00:24:26.946Z,94.20
2023-03-21T00:25:26.934Z,93.99
2023-03-21T00:26:26.919Z,93.89
2023-03-21T00:27:47.194Z,94.30
2023-03-21T00:28:27.886Z,94.20
2023-03-21T00:29:26.896Z,93.89
2023-03-21T00:30:26.933Z,93.89
2023-03-21T00:31:26.839Z,93.69
2023-03-21T00:32:26.816Z,93.79
2023-03-21T00:33:26.816Z,93.69
2023-03-21T00:34:36.761Z,93.99
2023-03-21T00:35:57.824Z,93.99
2023-03-21T00:36:27.792Z,93.69
2023-03-21T00:37:26.754Z,93.59
2023-03-21T00:38:26.737Z,93.28
2023-03-21T00:39:26.729Z,93.99
2023-03-21T00:40:33.091Z,93.99
2023-03-21T00:41:41.357Z,93.59
2023-03-21T00:42:27.678Z,93.59
2023-03-21T00:43:26.671Z,93.79
2023-03-21T00:44:26.649Z,93.85
2023-03-21T00:45:26.694Z,93.65
2023-03-21T00:46:30.081Z,93.54
2023-03-21T00:47:27.627Z,93.65
2023-03-21T00:48:26.640Z,93.44
2023-03-21T00:49:26.594Z,93.65
2023-03-21T00:50:26.584Z,93.85
2023-03-21T00:51:26.779Z,93.74
2023-03-21T00:52:39.829Z,93.74
2023-03-21T00:53:27.540Z,93.95
2023-03-21T00:54:26.518Z,93.65
2023-03-21T00:55:26.521Z,93.65
2023-03-21T00:56:26.495Z,93.44
2023-03-21T00:57:38.098Z,93.65
2023-03-21T00:58:27.462Z,93.54
2023-03-21T00:59:26.453Z,93.65
2023-03-21T01:00:26.524Z,93.33
2023-03-21T01:01:26.437Z,93.13
2023-03-21T01:02:26.497Z,93.24
2023-03-21T01:03:26.393Z,92.93
2023-03-21T01:04:26.375Z,93.03
2023-03-21T01:05:26.381Z,93.03
2023-03-21T01:06:26.343Z,93.13
2023-03-21T01:07:26.347Z,92.66
2023-03-21T01:08:31.248Z,92.83
2023-03-21T01:09:27.311Z,92.93
2023-03-21T01:10:26.310Z,92.83
2023-03-21T01:11:26.292Z,92.66
2023-03-21T01:12:26.268Z,92.32
2023-03-21T01:13:26.304Z,92.11
2023-03-21T01:14:26.245Z,92.11
2023-03-21T01:15:26.262Z,92.05
2023-03-21T01:16:26.245Z,92.11
2023-03-21T01:17:26.242Z,91.80
2023-03-21T01:18:26.192Z,91.91
2023-03-21T01:19:37.667Z,91.80
2023-03-21T01:20:27.179Z,92.01
2023-03-21T01:21:26.153Z,91.95
2023-03-21T01:22:26.132Z,92.01
2023-03-21T01:23:26.122Z,91.91
2023-03-21T01:24:26.114Z,91.70
2023-03-21T01:25:26.122Z,92.01
2023-03-21T01:26:26.083Z,91.70
2023-03-21T01:27:26.108Z,91.80
2023-03-21T01:28:26.043Z,91.80
2023-03-21T01:29:26.046Z,91.91
2023-03-21T01:30:28.650Z,91.54
2023-03-21T01:31:27.053Z,91.19
2023-03-21T01:32:26.001Z,91.60
2023-03-21T01:33:25.980Z,91.29
2023-03-21T01:34:25.970Z,91.29
2023-03-21T01:35:27.044Z,91.29
2023-03-21T01:36:26.369Z,91.39
2023-03-21T01:37:25.932Z,91.60
2023-03-21T01:38:25.913Z,91.80
2023-03-21T01:39:25.913Z,91.39
2023-03-21T01:40:25.885Z,91.50
2023-03-21T01:41:33.558Z,91.09
2023-03-21T01:42:26.852Z,91.39
2023-03-21T01:43:25.864Z,91.19
2023-03-21T01:44:25.828Z,91.09
2023-03-21T01:45:25.852Z,90.99
2023-03-21T01:46:26.257Z,91.29
2023-03-21T01:47:25.796Z,91.09
2023-03-21T01:48:25.771Z,90.88
2023-03-21T01:49:25.765Z,90.68
2023-03-21T01:50:25.767Z,90.68
2023-03-21T01:51:25.736Z,90.78
2023-03-21T01:52:36.396Z,90.68
2023-03-21T01:53:26.705Z,90.47
2023-03-21T01:54:25.692Z,90.17
2023-03-21T01:55:25.710Z,89.97
2023-03-21T01:56:25.671Z,90.06
2023-03-21T01:57:30.019Z,89.97
2023-03-21T01:58:26.634Z,89.97
2023-03-21T01:59:25.629Z,89.76
2023-03-21T02:00:25.637Z,89.35
2023-03-21T02:01:25.644Z,88.74
2023-03-21T02:02:25.584Z,89.04
2023-03-21T02:03:35.407Z,88.84
2023-03-21T02:04:26.575Z,88.64
2023-03-21T02:05:25.581Z,88.74
2023-03-21T02:06:25.533Z,88.94
2023-03-21T02:07:25.525Z,88.74
2023-03-21T02:08:36.814Z,88.74
2023-03-21T02:09:26.495Z,88.43
2023-03-21T02:10:25.499Z,88.53
2023-03-21T02:11:25.457Z,88.53
2023-03-21T02:12:25.460Z,88.06
2023-03-21T02:13:25.444Z,88.12
2023-03-21T02:14:29.342Z,88.12
2023-03-21T02:15:25.424Z,88.43
2023-03-21T02:16:25.449Z,88.74
2023-03-21T02:17:25.377Z,88.74
2023-03-21T02:18:25.373Z,88.74
2023-03-21T02:19:31.964Z,88.74
2023-03-21T02:20:26.350Z,88.64
2023-03-21T02:21:25.338Z,88.74
2023-03-21T02:22:25.309Z,88.74
2023-03-21T02:23:25.320Z,88.33
2023-03-21T02:24:25.279Z,88.33
2023-03-21T02:25:25.271Z,88.23
2023-03-21T02:26:28.477Z,87.92
2023-03-21T02:27:26.242Z,88.23
2023-03-21T02:28:25.243Z,87.71
2023-03-21T02:29:25.229Z,88.12
2023-03-21T02:30:45.642Z,88.23
2023-03-21T02:31:26.218Z,87.82
2023-03-21T02:32:36.517Z,87.92
2023-03-21T02:33:26.171Z,87.82
2023-03-21T02:34:25.140Z,87.71
2023-03-21T02:35:25.156Z,87.71
2023-03-21T02:36:25.143Z,87.61
2023-03-21T02:37:36.663Z,87.51
2023-03-21T02:38:26.103Z,87.41
2023-03-21T02:39:25.080Z,87.30
2023-03-21T02:40:25.074Z,87.00
2023-03-21T02:41:27.463Z,86.90
2023-03-21T02:42:25.032Z,86.79
2023-03-21T02:43:25.042Z,86.49
2023-03-21T02:44:25.023Z,86.29
2023-03-21T02:45:25.003Z,86.38
2023-03-21T02:46:33.255Z,85.97
2023-03-21T02:47:25.961Z,85.88
2023-03-21T02:48:29.499Z,85.77
2023-03-21T02:49:25.942Z,85.57
2023-03-21T02:50:24.932Z,85.67
2023-03-21T02:51:24.934Z,85.77
2023-03-21T02:52:37.816Z,85.97
2023-03-21T02:53:25.885Z,85.47
2023-03-21T02:54:38.211Z,85.40
2023-03-21T02:55:25.854Z,85.26
2023-03-21T02:56:24.881Z,85.57
2023-03-21T02:57:29.201Z,85.88
2023-03-21T02:58:25.818Z,85.57
2023-03-21T02:59:24.815Z,85.88
2023-03-21T03:00:24.806Z,85.67
2023-03-21T03:01:24.823Z,85.77
2023-03-21T03:02:24.764Z,85.57
2023-03-21T03:03:33.946Z,85.47
2023-03-21T03:04:25.746Z,85.57
2023-03-21T03:05:24.745Z,85.67
2023-03-21T03:06:24.738Z,85.57
2023-03-21T03:07:24.700Z,85.36
2023-03-21T03:08:36.131Z,85.26
2023-03-21T03:09:25.683Z,85.36
2023-03-21T03:10:24.659Z,85.30
2023-03-21T03:11:24.677Z,85.10
2023-03-21T03:12:24.627Z,84.75
2023-03-21T03:13:24.620Z,84.58
2023-03-21T03:15:25.593Z,84.69
2023-03-21T03:16:24.603Z,84.69
2023-03-21T03:17:25.845Z,84.69
2023-03-21T03:18:24.551Z,84.28
2023-03-21T03:19:24.540Z,83.87
2023-03-21T03:20:24.533Z,83.66
2023-03-21T03:21:24.522Z,83.46
2023-03-21T03:22:24.489Z,83.25
2023-03-21T03:23:24.481Z,83.15
2023-03-21T03:24:24.476Z,83.36
2023-03-21T03:25:36.083Z,83.05
2023-03-21T03:26:25.473Z,82.84
2023-03-21T03:27:24.429Z,82.95
2023-03-21T03:28:24.411Z,82.84
2023-03-21T03:29:24.401Z,82.95
2023-03-21T03:30:29.652Z,82.48
2023-03-21T03:31:25.431Z,82.07
2023-03-21T03:32:24.363Z,82.07
2023-03-21T03:33:24.353Z,81.65
2023-03-21T03:34:24.320Z,81.45
2023-03-21T03:35:24.310Z,81.35
2023-03-21T03:36:32.052Z,80.94
2023-03-21T03:37:25.299Z,81.24
2023-03-21T03:38:24.270Z,80.94
2023-03-21T03:39:24.260Z,80.63
2023-03-21T03:40:24.247Z,80.63
2023-03-21T03:41:25.632Z,80.53
2023-03-21T03:42:28.991Z,80.33
2023-03-21T03:43:24.202Z,80.22
2023-03-21T03:44:24.186Z,80.22
2023-03-21T03:45:24.174Z,79.75
2023-03-21T03:46:24.224Z,79.24
2023-03-21T03:47:33.484Z,79.85
2023-03-21T03:48:25.188Z,80.05
2023-03-21T03:49:24.127Z,79.82
2023-03-21T03:50:24.113Z,79.91
2023-03-21T03:51:24.116Z,80.02
2023-03-21T03:52:24.117Z,80.22
2023-03-21T03:53:24.081Z,80.33
2023-03-21T03:54:24.055Z,80.33
2023-03-21T03:55:24.042Z,80.22
2023-03-21T03:56:24.028Z,80.02
2023-03-21T03:57:24.039Z,80.33
2023-03-21T03:58:27.442Z,80.43
2023-03-21T03:59:24.997Z,80.43
2023-03-21T04:00:23.993Z,80.74
2023-03-21T04:01:23.951Z,80.63
2023-03-21T04:02:24.000Z,80.74
2023-03-21T04:03:24.058Z,80.74
2023-03-21T04:04:23.970Z,80.53
2023-03-21T04:05:23.925Z,80.63
2023-03-21T04:06:23.905Z,80.63
2023-03-21T04:07:23.888Z,80.43
2023-03-21T04:08:23.880Z,80.43
2023-03-21T04:09:37.253Z,80.63
2023-03-21T04:10:24.833Z,80.83
2023-03-21T04:11:23.818Z,81.15
2023-03-21T04:12:23.818Z,81.45
2023-03-21T04:13:23.789Z,81.45
2023-03-21T04:14:24.512Z,81.35
2023-03-21T04:15:23.766Z,81.35
2023-03-21T04:16:23.793Z,81.56
2023-03-21T04:17:23.757Z,81.15
2023-03-21T04:18:23.733Z,81.24
2023-03-21T04:19:23.712Z,82.17
2023-03-21T04:20:36.194Z,82.57
2023-03-21T04:21:24.682Z,82.37
2023-03-21T04:22:23.671Z,82.48
2023-03-21T04:23:23.652Z,82.78
2023-03-21T04:24:23.639Z,83.05
2023-03-21T04:25:32.680Z,83.25
2023-03-21T04:26:24.618Z,83.70
2023-03-21T04:27:23.613Z,83.39
2023-03-21T04:28:23.608Z,82.98
2023-03-21T04:29:23.572Z,83.39
2023-03-21T04:30:23.560Z,83.46
2023-03-21T04:31:26.184Z,83.36
2023-03-21T04:32:23.575Z,83.05
2023-03-21T04:33:23.524Z,83.50
2023-03-21T04:34:23.501Z,83.25
2023-03-21T04:35:23.496Z,83.56
2023-03-21T04:36:23.480Z,83.56
2023-03-21T04:37:23.511Z,83.60
2023-03-21T04:38:23.476Z,83.76
2023-03-21T04:39:23.441Z,83.05
2023-03-21T04:40:23.424Z,82.78
2023-03-21T04:41:23.420Z,81.86
2023-03-21T04:42:23.418Z,80.69
2023-03-21T04:43:23.373Z,80.08
2023-03-21T04:44:23.362Z,80.12
2023-03-21T04:45:23.356Z,80.02
2023-03-21T04:46:23.341Z,79.91
2023-03-21T04:47:23.333Z,78.89
2023-03-21T04:48:23.321Z,77.97
2023-03-21T04:49:23.305Z,77.15
2023-03-21T04:50:23.299Z,76.54
2023-03-21T04:51:23.277Z,75.62
2023-03-21T04:52:25.246Z,75.21
2023-03-21T04:53:23.236Z,75.21
2023-03-21T04:54:23.251Z,75.82
2023-03-21T04:55:23.261Z,76.17
2023-03-21T04:56:23.193Z,74.80
2023-03-21T04:57:23.192Z,74.08
2023-03-21T04:58:23.182Z,73.36
2023-03-21T04:59:23.151Z,72.75
2023-03-21T05:00:23.142Z,72.14
2023-03-21T05:01:23.164Z,70.91
2023-03-21T05:02:23.176Z,70.81
2023-03-21T05:03:23.121Z,70.71
2023-03-21T05:04:23.117Z,70.81
2023-03-21T05:05:23.071Z,70.71
2023-03-21T05:06:23.062Z,70.61
2023-03-21T05:07:23.147Z,70.29
2023-03-21T05:08:23.042Z,69.27
2023-03-21T05:09:23.022Z,69.99
2023-03-21T05:10:23.003Z,70.33
2023-03-21T05:11:22.992Z,70.23
2023-03-21T05:12:23.012Z,70.33
2023-03-21T05:13:22.974Z,69.20
2023-03-21T05:14:22.953Z,70.12
2023-03-21T05:15:22.932Z,70.43
2023-03-21T05:16:22.982Z,69.92
2023-03-21T05:17:22.954Z,69.51
2023-03-21T05:18:22.902Z,68.69
2023-03-21T05:19:22.888Z,68.79
2023-03-21T05:20:22.873Z,68.79
2023-03-21T05:21:22.855Z,68.79
2023-03-21T05:22:22.844Z,70.33
2023-03-21T05:23:22.845Z,70.84
2023-03-21T05:24:22.812Z,70.53
2023-03-21T05:25:22.804Z,70.12
2023-03-21T05:26:22.794Z,70.03
2023-03-21T05:27:22.777Z,69.20
2023-03-21T05:28:22.785Z,67.77
2023-03-21T05:29:32.476Z,66.85
2023-03-21T05:30:25.429Z,66.24
2023-03-21T05:31:22.754Z,65.21
2023-03-21T05:32:22.716Z,64.50
2023-03-21T05:33:22.718Z,64.39
2023-03-21T05:34:22.691Z,63.81
2023-03-21T05:35:22.685Z,64.01
2023-03-21T05:36:22.669Z,64.42
2023-03-21T05:37:22.646Z,63.40
2023-03-21T05:38:22.637Z,63.09
2023-03-21T05:39:22.620Z,62.68
2023-03-21T05:40:22.622Z,62.17
2023-03-21T05:41:22.596Z,62.17
2023-03-21T05:42:22.604Z,63.60
2023-03-21T05:43:22.603Z,64.01
2023-03-21T05:44:22.559Z,63.50
2023-03-21T05:45:22.564Z,62.58
2023-03-21T05:46:22.586Z,63.09
2023-03-21T05:47:22.530Z,63.20
2023-03-21T05:48:22.565Z,63.29
2023-03-21T05:49:22.538Z,64.32
2023-03-21T05:50:22.486Z,65.04
2023-03-21T05:51:22.467Z,65.45
2023-03-21T05:52:22.450Z,65.34
2023-03-21T05:53:23.383Z,65.75
2023-03-21T05:54:22.423Z,65.96
2023-03-21T05:55:22.401Z,66.47
2023-03-21T05:56:22.392Z,65.75
2023-03-21T05:57:22.400Z,65.34
2023-03-21T05:58:22.392Z,66.16
2023-03-21T05:59:22.345Z,65.96
2023-03-21T06:00:22.353Z,65.65
2023-03-21T06:01:22.320Z,64.62
2023-03-21T06:02:22.353Z,64.01
2023-03-21T06:03:22.534Z,63.29
2023-03-21T06:04:22.301Z,62.99
2023-03-21T06:05:22.286Z,63.91
2023-03-21T06:06:22.273Z,64.73
2023-03-21T06:07:22.242Z,64.12
2023-03-21T06:08:22.244Z,63.91
2023-03-21T06:09:22.245Z,63.81
2023-03-21T06:10:22.205Z,65.96
2023-03-21T06:11:22.183Z,66.37
2023-03-21T06:12:22.174Z,66.57
2023-03-21T06:13:22.185Z,66.88
2023-03-21T06:14:22.153Z,66.98
2023-03-21T06:15:22.130Z,65.86
2023-03-21T06:16:22.190Z,65.93
2023-03-21T06:17:22.106Z,65.55
2023-03-21T06:18:22.137Z,65.96
2023-03-21T06:19:22.087Z,66.44
2023-03-21T06:20:22.103Z,66.44
2023-03-21T06:21:22.057Z,59.38
2023-03-21T06:22:22.053Z,61.93
2023-03-21T06:23:22.031Z,62.85
2023-03-21T06:24:22.017Z,62.93
2023-03-21T06:25:22.031Z,64.57
2023-03-21T06:26:21.987Z,67.67
2023-03-21T06:27:21.969Z,68.28
2023-03-21T06:28:21.989Z,68.28
2023-03-21T06:29:21.953Z,67.46
2023-03-21T06:30:21.946Z,68.79
2023-03-21T06:31:21.941Z,68.49
2023-03-21T06:32:21.934Z,68.79
2023-03-21T06:33:21.903Z,68.28
2023-03-21T06:34:21.885Z,68.49
2023-03-21T06:35:21.865Z,67.36
2023-03-21T06:36:21.869Z,68.38
2023-03-21T06:37:21.840Z,68.59
2023-03-21T06:38:21.847Z,67.77
2023-03-21T06:39:21.806Z,67.77
2023-03-21T06:40:22.054Z,67.67
2023-03-21T06:41:21.781Z,67.97
2023-03-21T06:42:21.796Z,67.97
2023-03-21T06:43:21.816Z,68.18
2023-03-21T06:44:21.779Z,68.28
2023-03-21T06:45:21.729Z,68.35
2023-03-21T06:46:21.771Z,69.20
2023-03-21T06:47:21.696Z,68.66
2023-03-21T06:48:21.781Z,68.59
2023-03-21T06:49:21.668Z,68.38
2023-03-21T06:50:21.679Z,69.31
2023-03-21T06:51:21.648Z,69.00
2023-03-21T06:52:21.650Z,69.31
2023-03-21T06:53:21.657Z,68.90
2023-03-21T06:54:21.610Z,70.23
2023-03-21T06:55:21.597Z,70.12
2023-03-21T06:56:21.598Z,69.51
2023-03-21T06:57:21.577Z,69.82
2023-03-21T06:58:21.571Z,69.68
2023-03-21T06:59:21.529Z,70.40
2023-03-21T07:00:21.535Z,70.71
2023-03-21T07:01:21.551Z,71.01
2023-03-21T07:02:21.537Z,70.91
2023-03-21T07:03:21.502Z,71.42
2023-03-21T07:04:21.477Z,70.71
2023-03-21T07:05:21.459Z,70.91
2023-03-21T07:06:21.441Z,73.68
2023-03-21T07:07:21.432Z,73.16
2023-03-21T07:08:21.642Z,72.96
2023-03-21T07:09:21.404Z,73.06
2023-03-21T07:10:21.390Z,73.88
2023-03-21T07:11:21.378Z,73.85
2023-03-21T07:12:21.364Z,73.54
2023-03-21T07:13:21.373Z,73.13
2023-03-21T07:14:21.344Z,72.00
2023-03-21T07:15:21.342Z,74.05
2023-03-21T07:16:21.320Z,73.64
2023-03-21T07:17:21.300Z,73.44
2023-03-21T07:18:21.323Z,72.21
2023-03-21T07:19:21.283Z,72.92
2023-03-21T07:20:21.263Z,72.31
2023-03-21T07:21:21.233Z,73.23
2023-03-21T07:22:21.238Z,73.44
2023-03-21T07:23:21.218Z,73.03
2023-03-21T07:24:21.235Z,72.62
2023-03-21T07:25:21.241Z,72.41
2023-03-21T07:26:21.173Z,72.31
2023-03-21T07:27:21.163Z,72.21
2023-03-21T07:28:21.147Z,72.62
2023-03-21T07:29:21.146Z,72.62
2023-03-21T07:30:21.120Z,73.13
2023-03-21T07:31:21.138Z,73.13
2023-03-21T07:32:21.097Z,72.52
2023-03-21T07:33:21.076Z,72.52
2023-03-21T07:34:21.088Z,71.70
2023-03-21T07:35:21.047Z,71.80
2023-03-21T07:36:21.065Z,71.80
2023-03-21T07:37:21.014Z,71.25
2023-03-21T07:38:21.011Z,71.08
2023-03-21T07:39:21.016Z,71.19
2023-03-21T07:40:20.984Z,70.03
2023-03-21T07:41:20.990Z,69.31
2023-03-21T07:42:20.956Z,69.11
2023-03-21T07:43:20.955Z,68.49
2023-03-21T07:44:20.994Z,68.19
2023-03-21T07:45:21.320Z,67.78
2023-03-21T07:46:21.059Z,69.21
2023-03-21T07:47:20.880Z,68.19
2023-03-21T07:48:20.926Z,67.57
2023-03-21T07:49:20.866Z,67.37
2023-03-21T07:50:20.862Z,66.45
2023-03-21T07:51:20.824Z,66.99
2023-03-21T07:52:20.814Z,65.66
2023-03-21T07:53:20.798Z,65.36
2023-03-21T07:54:20.796Z,64.84
2023-03-21T07:55:20.819Z,63.00
2023-03-21T07:56:20.766Z,61.88
2023-03-21T07:57:20.737Z,61.34
2023-03-21T07:58:20.739Z,60.52
2023-03-21T07:59:20.734Z,59.50
2023-03-21T08:00:20.716Z,58.68
2023-03-21T08:01:20.684Z,58.78
2023-03-21T08:02:20.728Z,57.76
2023-03-21T08:03:20.698Z,57.68
2023-03-21T08:04:20.667Z,57.68
2023-03-21T08:05:20.627Z,57.28
2023-03-21T08:06:20.624Z,56.97
2023-03-21T08:07:20.609Z,55.13
2023-03-21T08:08:20.601Z,53.69
2023-03-21T08:09:20.587Z,52.37
2023-03-21T08:10:20.566Z,51.86
2023-03-21T08:11:20.548Z,52.06
2023-03-21T08:12:20.543Z,50.32
2023-03-21T08:13:20.537Z,49.71
2023-03-21T08:14:20.541Z,47.97
2023-03-21T08:15:20.499Z,46.64
2023-03-21T08:16:20.519Z,45.92
2023-03-21T08:17:20.469Z,45.39
2023-03-21T08:18:20.459Z,45.20
2023-03-21T08:19:20.493Z,45.41
2023-03-21T08:20:20.443Z,44.79
2023-03-21T08:21:20.419Z,44.59
2023-03-21T08:22:20.409Z,44.79
2023-03-21T08:23:20.380Z,43.77
2023-03-21T08:24:20.421Z,42.96
2023-03-21T08:25:20.349Z,42.24
2023-03-21T08:26:20.352Z,40.60
2023-03-21T08:27:20.322Z,40.30
2023-03-21T08:28:20.320Z,39.69
2023-03-21T08:29:20.329Z,39.37
2023-03-21T08:30:20.297Z,38.04
2023-03-21T08:31:20.301Z,38.35
2023-03-21T08:32:20.263Z,37.54
2023-03-21T08:33:20.243Z,36.51
2023-03-21T08:34:20.253Z,36.00
2023-03-21T08:35:20.243Z,35.18
2023-03-21T08:36:20.259Z,34.57
2023-03-21T08:37:20.194Z,33.24
2023-03-21T08:38:20.184Z,32.62
2023-03-21T08:39:20.223Z,31.70
2023-03-21T08:40:20.149Z,32.11
2023-03-21T08:41:20.165Z,30.88
2023-03-21T08:42:20.126Z,30.17
2023-03-21T08:43:20.124Z,33.14
2023-03-21T08:44:20.128Z,32.03
2023-03-21T08:45:20.083Z,30.59
2023-03-21T08:46:20.161Z,30.27
2023-03-21T08:47:20.062Z,29.98
2023-03-21T08:48:20.113Z,29.26
2023-03-21T08:49:20.046Z,29.26
2023-03-21T08:50:20.014Z,28.64
2023-03-21T08:51:20.006Z,28.55
2023-03-21T08:52:19.986Z,29.98
2023-03-21T08:53:19.975Z,28.85
2023-03-21T08:54:19.984Z,27.32
2023-03-21T08:55:19.949Z,26.69
2023-03-21T08:56:19.934Z,27.83
2023-03-21T08:57:19.927Z,27.73
2023-03-21T08:58:19.905Z,26.49
2023-03-21T08:59:19.906Z,26.59
2023-03-21T09:00:19.866Z,26.28
2023-03-21T09:01:19.939Z,25.77
2023-03-21T09:02:19.860Z,26.49
2023-03-21T09:03:19.837Z,26.59
2023-03-21T09:04:19.889Z,26.08
2023-03-21T09:05:19.809Z,25.67
2023-03-21T09:06:19.804Z,25.98
2023-03-21T09:07:19.778Z,25.26
2023-03-21T09:08:19.768Z,26.18
2023-03-21T09:09:19.778Z,26.48
2023-03-21T09:10:21.456Z,26.37
2023-03-21T09:11:19.732Z,26.27
2023-03-21T09:12:19.711Z,25.96
2023-03-21T09:13:19.699Z,25.96
2023-03-21T09:14:21.901Z,26.58
2023-03-21T09:15:19.697Z,26.58
2023-03-21T09:16:19.728Z,27.08
2023-03-21T09:17:21.231Z,27.28
2023-03-21T09:18:19.628Z,28.71
2023-03-21T09:19:19.618Z,29.02
2023-03-21T09:20:19.649Z,29.22
2023-03-21T09:21:19.590Z,29.22
2023-03-21T09:22:19.583Z,31.37
2023-03-21T09:23:19.569Z,33.51
2023-03-21T09:24:19.561Z,35.35
2023-03-21T09:25:19.533Z,36.40
2023-03-21T09:26:19.569Z,35.78
2023-03-21T09:27:19.531Z,35.15
2023-03-21T09:28:19.493Z,37.41
2023-03-21T09:29:19.494Z,37.11
2023-03-21T09:30:19.473Z,36.17
2023-03-21T09:31:19.527Z,38.01
2023-03-21T09:32:19.441Z,39.44
2023-03-21T09:33:19.505Z,39.54
2023-03-21T09:34:19.739Z,40.26
2023-03-21T09:35:19.410Z,40.97
2023-03-21T09:36:19.419Z,42.00
2023-03-21T09:37:19.374Z,42.50
2023-03-21T09:38:19.361Z,42.50
2023-03-21T09:39:19.369Z,42.71
2023-03-21T09:40:19.358Z,44.14
2023-03-21T09:41:19.326Z,47.31
2023-03-21T09:42:19.304Z,48.64
2023-03-21T09:43:19.292Z,49.05
2023-03-21T09:44:19.293Z,47.20
2023-03-21T09:45:19.273Z,45.78
2023-03-21T09:46:19.309Z,47.00
2023-03-21T09:47:19.239Z,45.57
2023-03-21T09:48:19.311Z,45.78
2023-03-21T09:49:19.253Z,44.35
2023-03-21T09:50:19.200Z,44.04
2023-03-21T09:51:19.204Z,47.31
2023-03-21T09:52:19.165Z,47.61
2023-03-21T09:53:19.165Z,48.23
2023-03-21T09:54:19.462Z,47.82
2023-03-21T09:55:19.143Z,48.02
2023-03-21T09:56:19.148Z,49.55
2023-03-21T09:57:19.107Z,48.54
2023-03-21T09:58:19.089Z,46.90
2023-03-21T09:59:19.082Z,47.52
2023-03-21T10:00:19.057Z,46.90
2023-03-21T10:01:19.102Z,48.02
2023-03-21T10:02:19.026Z,47.20
2023-03-21T10:03:19.014Z,48.43
2023-03-21T10:04:19.091Z,48.02
2023-03-21T10:05:18.997Z,46.16
2023-03-21T10:06:18.993Z,44.53
2023-03-21T10:07:18.962Z,43.61
2023-03-21T10:08:18.946Z,44.43
2023-03-21T10:09:18.944Z,45.96
2023-03-21T10:10:18.928Z,47.52
2023-03-21T10:11:18.929Z,46.19
2023-03-21T10:12:18.893Z,46.59
2023-03-21T10:13:18.882Z,44.76
2023-03-21T10:14:18.863Z,44.24
2023-03-21T10:15:18.870Z,44.14
2023-03-21T10:16:19.016Z,43.73
2023-03-21T10:17:18.841Z,42.91
2023-03-21T10:18:18.810Z,42.10
2023-03-21T10:19:18.805Z,42.41
2023-03-21T10:20:18.813Z,42.61
2023-03-21T10:21:42.977Z,42.61
2023-03-21T10:22:19.758Z,41.59
2023-03-21T10:23:18.751Z,40.67
2023-03-21T10:24:18.731Z,40.67
2023-03-21T10:25:18.740Z,40.26
2023-03-21T10:26:20.459Z,39.75
2023-03-21T10:27:18.685Z,38.73
2023-03-21T10:28:18.680Z,37.68
2023-03-21T10:29:18.745Z,36.46
2023-03-21T10:30:18.664Z,37.48
2023-03-21T10:31:18.668Z,37.79
2023-03-21T10:32:18.629Z,38.71
2023-03-21T10:33:18.654Z,40.03
2023-03-21T10:34:18.594Z,41.67
2023-03-21T10:35:18.603Z,41.67
2023-03-21T10:36:18.575Z,43.91
2023-03-21T10:37:18.566Z,45.86
2023-03-21T10:38:18.534Z,47.29
2023-03-21T10:39:18.527Z,45.04
2023-03-21T10:40:18.526Z,45.53
2023-03-21T10:41:18.504Z,46.04
2023-03-21T10:42:18.492Z,47.27
2023-03-21T10:43:18.478Z,50.33
2023-03-21T10:44:18.458Z,51.25
2023-03-21T10:45:18.468Z,51.15
2023-03-21T10:46:18.669Z,50.63
2023-03-21T10:47:18.648Z,51.76
2023-03-21T10:48:18.475Z,52.78
2023-03-21T10:49:18.387Z,53.80
2023-03-21T10:50:18.461Z,54.31
2023-03-21T10:51:18.372Z,54.00
2023-03-21T10:52:18.360Z,54.61
2023-03-21T10:53:18.341Z,54.82
2023-03-21T10:54:18.332Z,55.63
2023-03-21T10:55:18.358Z,55.74
2023-03-21T10:56:18.290Z,57.04
2023-03-21T10:57:18.309Z,58.06
2023-03-21T10:58:18.262Z,58.06
2023-03-21T10:59:20.102Z,56.23
2023-03-21T11:00:18.261Z,60.00
2023-03-21T11:01:18.249Z,60.30
2023-03-21T11:02:18.269Z,62.14
2023-03-21T11:03:18.200Z,63.16
2023-03-21T11:04:18.187Z,65.51
2023-03-21T11:05:20.472Z,66.42
2023-03-21T11:06:18.180Z,65.58
2023-03-21T11:07:18.149Z,63.95
2023-03-21T11:08:18.162Z,66.80
2023-03-21T11:09:18.121Z,66.27
2023-03-21T11:10:28.140Z,65.75
2023-03-21T11:11:20.225Z,66.94
2023-03-21T11:12:18.085Z,66.94
2023-03-21T11:13:18.095Z,67.69
2023-03-21T11:14:18.052Z,68.61
2023-03-21T11:15:18.042Z,64.73
2023-03-21T11:16:18.137Z,63.92
2023-03-21T11:17:18.046Z,66.57
2023-03-21T11:18:18.026Z,65.45
2023-03-21T11:19:18.026Z,66.97
2023-03-21T11:20:18.024Z,66.85
2023-03-21T11:21:17.978Z,69.49
2023-03-21T11:22:17.937Z,68.17
2023-03-21T11:23:20.447Z,68.78
2023-03-21T11:24:17.927Z,68.88
2023-03-21T11:25:17.928Z,69.59
2023-03-21T11:26:17.893Z,71.53
2023-03-21T11:27:17.887Z,69.90
2023-03-21T11:28:17.860Z,70.51
2023-03-21T11:29:18.392Z,71.94
2023-03-21T11:30:17.943Z,69.73
2023-03-21T11:31:17.895Z,68.88
2023-03-21T11:32:17.828Z,68.30
2023-03-21T11:33:17.805Z,69.12
2023-03-21T11:34:17.786Z,69.12
2023-03-21T11:35:19.400Z,68.40
2023-03-21T11:36:17.801Z,66.77
2023-03-21T11:37:17.750Z,67.38
2023-03-21T11:38:17.732Z,66.91
2023-03-21T11:39:17.722Z,65.75
2023-03-21T11:40:17.705Z,67.01
2023-03-21T11:41:18.492Z,67.01
2023-03-21T11:42:17.673Z,67.93
2023-03-21T11:43:17.679Z,66.53
2023-03-21T11:44:17.647Z,66.63
2023-03-21T11:45:17.644Z,65.20
2023-03-21T11:46:17.712Z,66.02
2023-03-21T11:47:17.623Z,64.79
2023-03-21T11:48:17.669Z,65.28
2023-03-21T11:49:17.589Z,65.61
2023-03-21T11:50:17.571Z,67.24
2023-03-21T11:51:17.571Z,66.22
2023-03-21T11:52:17.534Z,64.69
2023-03-21T11:53:17.530Z,63.47
2023-03-21T11:54:17.513Z,64.79
2023-03-21T11:55:17.499Z,63.75
2023-03-21T11:56:17.505Z,63.34
2023-03-21T11:57:17.473Z,66.19
2023-03-21T11:58:17.464Z,66.30
2023-03-21T11:59:17.446Z,66.33
2023-03-21T12:00:17.428Z,66.42
2023-03-21T12:01:17.468Z,65.31
2023-03-21T12:02:17.413Z,64.39
2023-03-21T12:03:17.393Z,64.79
2023-03-21T12:04:17.391Z,63.16
2023-03-21T12:05:17.371Z,63.57
2023-03-21T12:06:17.376Z,63.78
2023-03-21T12:07:17.352Z,65.20
2023-03-21T12:08:17.318Z,62.85
2023-03-21T12:09:17.706Z,61.66
2023-03-21T12:10:17.296Z,62.14
2023-03-21T12:11:17.314Z,60.82
2023-03-21T12:12:18.737Z,60.51
2023-03-21T12:13:17.275Z,60.82
2023-03-21T12:14:17.235Z,58.98
2023-03-21T12:15:17.239Z,58.26
2023-03-21T12:16:17.315Z,57.65
2023-03-21T12:17:17.205Z,59.49
2023-03-21T12:18:17.183Z,58.78
2023-03-21T12:19:17.186Z,58.87
2023-03-21T12:20:17.147Z,57.96
2023-03-21T12:21:17.171Z,56.84
2023-03-21T12:22:17.131Z,54.90
2023-03-21T12:23:17.224Z,53.57
2023-03-21T12:24:17.117Z,54.39
2023-03-21T12:25:17.089Z,53.67
2023-03-21T12:26:17.090Z,53.27
2023-03-21T12:27:17.081Z,53.16
2023-03-21T12:28:23.826Z,52.55
2023-03-21T12:29:18.042Z,55.71
2023-03-21T12:30:17.052Z,54.08
2023-03-21T12:31:17.136Z,55.38
2023-03-21T12:32:16.996Z,56.73
2023-03-21T12:33:17.007Z,59.89
2023-03-21T12:34:16.962Z,59.46
2023-03-21T12:35:16.953Z,59.05
2023-03-21T12:36:16.962Z,61.19
2023-03-21T12:37:16.927Z,60.78
2023-03-21T12:38:16.908Z,60.96
2023-03-21T12:39:16.898Z,63.00
2023-03-21T12:40:16.886Z,64.22
2023-03-21T12:41:16.897Z,64.94
2023-03-21T12:42:16.878Z,66.16
2023-03-21T12:43:16.848Z,66.33
2023-03-21T12:44:16.859Z,67.38
2023-03-21T12:45:16.829Z,67.90
2023-03-21T12:46:16.842Z,70.04
2023-03-21T12:47:16.785Z,69.63
2023-03-21T12:48:16.797Z,68.23
2023-03-21T12:49:16.756Z,65.95
2023-03-21T12:50:16.744Z,67.69
2023-03-21T12:51:16.760Z,67.99
2023-03-21T12:52:16.720Z,68.68
2023-03-21T12:53:16.714Z,67.05